sensor_id;sensor_type;location;lat;lon;timestamp;P1;durP1;ratioP1;P2;durP2;ratioP2
24145;SDS011;12308;50.948;4.706;2022-11-20T00:01:50;70.40;;;36.40;;
24145;SDS011;12308;50.948;4.706;2022-11-20T00:04:15;72.40;;;34.63;;
24145;SDS011;12308;50.948;4.706;2022-11-20T00:06:41;70.03;;;35.53;;
24145;SDS011;12308;50.948;4.706;2022-11-20T00:09:09;66.43;;;34.80;;
24145;SDS011;12308;50.948;4.706;2022-11-20T00:11:35;65.90;;;34.83;;
24145;SDS011;12308;50.948;4.706;2022-11-20T00:14:01;64.43;;;33.42;;
24145;SDS011;12308;50.948;4.706;2022-11-20T00:16:28;71.00;;;35.53;;
24145;SDS011;12308;50.948;4.706;2022-11-20T00:18:55;66.72;;;33.85;;
24145;SDS011;12308;50.948;4.706;2022-11-20T00:21:22;63.50;;;34.67;;
24145;SDS011;12308;50.948;4.706;2022-11-20T00:23:50;68.15;;;34.17;;
24145;SDS011;12308;50.948;4.706;2022-11-20T00:26:17;67.50;;;35.30;;
24145;SDS011;12308;50.948;4.706;2022-11-20T00:28:44;66.72;;;33.33;;
24145;SDS011;12308;50.948;4.706;2022-11-20T00:31:15;63.63;;;32.85;;
24145;SDS011;12308;50.948;4.706;2022-11-20T00:33:42;63.13;;;33.40;;
24145;SDS011;12308;50.948;4.706;2022-11-20T00:36:09;61.63;;;32.05;;
24145;SDS011;12308;50.948;4.706;2022-11-20T00:38:37;66.45;;;33.40;;
24145;SDS011;12308;50.948;4.706;2022-11-20T00:41:04;62.35;;;31.83;;
24145;SDS011;12308;50.948;4.706;2022-11-20T00:43:31;61.60;;;33.13;;
24145;SDS011;12308;50.948;4.706;2022-11-20T00:46:01;58.67;;;31.58;;
24145;SDS011;12308;50.948;4.706;2022-11-20T00:48:28;62.03;;;32.58;;
24145;SDS011;12308;50.948;4.706;2022-11-20T00:50:54;62.97;;;30.35;;
24145;SDS011;12308;50.948;4.706;2022-11-20T00:53:20;60.45;;;31.70;;
24145;SDS011;12308;50.948;4.706;2022-11-20T00:55:59;60.85;;;32.08;;
24145;SDS011;12308;50.948;4.706;2022-11-20T00:58:31;60.65;;;31.15;;
24145;SDS011;12308;50.948;4.706;2022-11-20T01:01:22;57.97;;;31.05;;
24145;SDS011;12308;50.948;4.706;2022-11-20T01:03:49;61.72;;;32.10;;
24145;SDS011;12308;50.948;4.706;2022-11-20T01:06:17;63.90;;;31.55;;
24145;SDS011;12308;50.948;4.706;2022-11-20T01:08:44;65.10;;;31.25;;
24145;SDS011;12308;50.948;4.706;2022-11-20T01:11:12;61.53;;;32.65;;
24145;SDS011;12308;50.948;4.706;2022-11-20T01:13:44;64.07;;;32.45;;
24145;SDS011;12308;50.948;4.706;2022-11-20T01:18:45;66.47;;;33.83;;
24145;SDS011;12308;50.948;4.706;2022-11-20T01:21:13;63.05;;;33.20;;
24145;SDS011;12308;50.948;4.706;2022-11-20T01:23:41;63.97;;;32.17;;
24145;SDS011;12308;50.948;4.706;2022-11-20T01:26:09;62.92;;;33.35;;
24145;SDS011;12308;50.948;4.706;2022-11-20T01:28:40;60.47;;;32.97;;
24145;SDS011;12308;50.948;4.706;2022-11-20T01:31:13;65.63;;;33.35;;
24145;SDS011;12308;50.948;4.706;2022-11-20T01:33:39;69.30;;;34.15;;
24145;SDS011;12308;50.948;4.706;2022-11-20T01:36:06;66.85;;;34.00;;
24145;SDS011;12308;50.948;4.706;2022-11-20T01:38:33;62.38;;;33.03;;
24145;SDS011;12308;50.948;4.706;2022-11-20T01:40:59;66.97;;;33.70;;
24145;SDS011;12308;50.948;4.706;2022-11-20T01:43:25;61.47;;;31.77;;
24145;SDS011;12308;50.948;4.706;2022-11-20T01:48:38;65.32;;;32.92;;
24145;SDS011;12308;50.948;4.706;2022-11-20T01:51:30;62.25;;;32.17;;
24145;SDS011;12308;50.948;4.706;2022-11-20T01:54:01;65.50;;;34.40;;
24145;SDS011;12308;50.948;4.706;2022-11-20T01:56:30;59.83;;;31.07;;
24145;SDS011;12308;50.948;4.706;2022-11-20T01:59:01;59.40;;;29.80;;
24145;SDS011;12308;50.948;4.706;2022-11-20T02:01:29;65.82;;;32.65;;
24145;SDS011;12308;50.948;4.706;2022-11-20T02:03:54;65.15;;;33.80;;
24145;SDS011;12308;50.948;4.706;2022-11-20T02:09:05;63.30;;;33.22;;
24145;SDS011;12308;50.948;4.706;2022-11-20T02:11:31;66.78;;;32.42;;
24145;SDS011;12308;50.948;4.706;2022-11-20T02:13:57;63.60;;;33.03;;
24145;SDS011;12308;50.948;4.706;2022-11-20T02:16:25;64.85;;;33.15;;
24145;SDS011;12308;50.948;4.706;2022-11-20T02:18:54;63.88;;;33.00;;
24145;SDS011;12308;50.948;4.706;2022-11-20T02:21:24;61.95;;;32.90;;
24145;SDS011;12308;50.948;4.706;2022-11-20T02:24:22;65.65;;;32.90;;
24145;SDS011;12308;50.948;4.706;2022-11-20T02:29:32;67.93;;;33.08;;
24145;SDS011;12308;50.948;4.706;2022-11-20T02:32:21;70.43;;;34.60;;
24145;SDS011;12308;50.948;4.706;2022-11-20T02:34:55;72.75;;;33.33;;
24145;SDS011;12308;50.948;4.706;2022-11-20T02:37:22;85.00;;;35.00;;
24145;SDS011;12308;50.948;4.706;2022-11-20T02:39:51;67.88;;;33.22;;
24145;SDS011;12308;50.948;4.706;2022-11-20T02:42:17;75.45;;;36.47;;
24145;SDS011;12308;50.948;4.706;2022-11-20T02:44:43;78.65;;;37.10;;
24145;SDS011;12308;50.948;4.706;2022-11-20T02:47:09;79.53;;;34.33;;
24145;SDS011;12308;50.948;4.706;2022-11-20T02:49:35;78.63;;;36.40;;
24145;SDS011;12308;50.948;4.706;2022-11-20T02:52:00;76.80;;;35.40;;
24145;SDS011;12308;50.948;4.706;2022-11-20T02:54:26;77.25;;;35.35;;
24145;SDS011;12308;50.948;4.706;2022-11-20T02:56:52;77.90;;;35.38;;
24145;SDS011;12308;50.948;4.706;2022-11-20T02:59:17;80.00;;;36.13;;
24145;SDS011;12308;50.948;4.706;2022-11-20T03:01:43;68.75;;;35.08;;
24145;SDS011;12308;50.948;4.706;2022-11-20T03:04:09;76.05;;;33.63;;
24145;SDS011;12308;50.948;4.706;2022-11-20T03:06:35;80.43;;;36.47;;
24145;SDS011;12308;50.948;4.706;2022-11-20T03:09:00;77.10;;;35.95;;
24145;SDS011;12308;50.948;4.706;2022-11-20T03:11:26;74.68;;;35.75;;
24145;SDS011;12308;50.948;4.706;2022-11-20T03:13:52;77.60;;;36.22;;
24145;SDS011;12308;50.948;4.706;2022-11-20T03:16:21;85.30;;;37.95;;
24145;SDS011;12308;50.948;4.706;2022-11-20T03:18:48;80.53;;;38.40;;
24145;SDS011;12308;50.948;4.706;2022-11-20T03:21:14;83.30;;;37.83;;
24145;SDS011;12308;50.948;4.706;2022-11-20T03:23:41;84.05;;;36.55;;
24145;SDS011;12308;50.948;4.706;2022-11-20T03:28:48;85.97;;;38.72;;
24145;SDS011;12308;50.948;4.706;2022-11-20T03:31:15;90.97;;;39.97;;
24145;SDS011;12308;50.948;4.706;2022-11-20T03:33:43;91.05;;;38.85;;
24145;SDS011;12308;50.948;4.706;2022-11-20T03:36:10;88.70;;;40.03;;
24145;SDS011;12308;50.948;4.706;2022-11-20T03:38:37;83.22;;;39.05;;
24145;SDS011;12308;50.948;4.706;2022-11-20T03:41:07;82.25;;;38.70;;
24145;SDS011;12308;50.948;4.706;2022-11-20T03:43:34;88.57;;;40.65;;
24145;SDS011;12308;50.948;4.706;2022-11-20T03:46:01;79.32;;;37.15;;
24145;SDS011;12308;50.948;4.706;2022-11-20T03:48:27;92.43;;;42.05;;
24145;SDS011;12308;50.948;4.706;2022-11-20T03:50:53;95.70;;;42.35;;
24145;SDS011;12308;50.948;4.706;2022-11-20T03:53:32;91.75;;;40.05;;
24145;SDS011;12308;50.948;4.706;2022-11-20T03:55:57;99.88;;;41.47;;
24145;SDS011;12308;50.948;4.706;2022-11-20T03:58:23;89.38;;;40.67;;
24145;SDS011;12308;50.948;4.706;2022-11-20T04:00:49;95.57;;;41.30;;
24145;SDS011;12308;50.948;4.706;2022-11-20T04:03:14;100.28;;;43.83;;
24145;SDS011;12308;50.948;4.706;2022-11-20T04:05:40;103.00;;;43.13;;
24145;SDS011;12308;50.948;4.706;2022-11-20T04:08:05;109.05;;;43.35;;
24145;SDS011;12308;50.948;4.706;2022-11-20T04:10:31;109.75;;;43.88;;
24145;SDS011;12308;50.948;4.706;2022-11-20T04:12:57;104.75;;;43.95;;
24145;SDS011;12308;50.948;4.706;2022-11-20T04:15:22;108.50;;;45.88;;
24145;SDS011;12308;50.948;4.706;2022-11-20T04:17:48;116.18;;;46.67;;
24145;SDS011;12308;50.948;4.706;2022-11-20T04:20:14;113.13;;;47.95;;
24145;SDS011;12308;50.948;4.706;2022-11-20T04:22:39;130.85;;;45.88;;
24145;SDS011;12308;50.948;4.706;2022-11-20T04:25:05;117.53;;;46.67;;
24145;SDS011;12308;50.948;4.706;2022-11-20T04:27:31;127.88;;;48.67;;
24145;SDS011;12308;50.948;4.706;2022-11-20T04:29:56;131.35;;;46.50;;
24145;SDS011;12308;50.948;4.706;2022-11-20T04:32:22;134.15;;;47.97;;
24145;SDS011;12308;50.948;4.706;2022-11-20T04:34:48;120.00;;;47.17;;
24145;SDS011;12308;50.948;4.706;2022-11-20T04:37:13;109.13;;;45.13;;
24145;SDS011;12308;50.948;4.706;2022-11-20T04:39:39;120.03;;;47.65;;
24145;SDS011;12308;50.948;4.706;2022-11-20T04:42:04;110.05;;;46.08;;
24145;SDS011;12308;50.948;4.706;2022-11-20T04:44:48;116.32;;;45.83;;
24145;SDS011;12308;50.948;4.706;2022-11-20T04:47:14;120.35;;;44.55;;
24145;SDS011;12308;50.948;4.706;2022-11-20T04:49:40;121.38;;;45.22;;
24145;SDS011;12308;50.948;4.706;2022-11-20T04:52:05;108.82;;;44.70;;
24145;SDS011;12308;50.948;4.706;2022-11-20T04:54:31;109.93;;;44.53;;
24145;SDS011;12308;50.948;4.706;2022-11-20T04:56:57;116.82;;;47.08;;
24145;SDS011;12308;50.948;4.706;2022-11-20T04:59:22;120.00;;;46.42;;
24145;SDS011;12308;50.948;4.706;2022-11-20T05:01:48;108.28;;;43.13;;
24145;SDS011;12308;50.948;4.706;2022-11-20T05:04:13;112.22;;;45.35;;
24145;SDS011;12308;50.948;4.706;2022-11-20T05:06:40;107.38;;;45.47;;
24145;SDS011;12308;50.948;4.706;2022-11-20T05:09:06;109.15;;;43.63;;
24145;SDS011;12308;50.948;4.706;2022-11-20T05:11:31;117.30;;;46.17;;
24145;SDS011;12308;50.948;4.706;2022-11-20T05:13:58;111.38;;;44.53;;
24145;SDS011;12308;50.948;4.706;2022-11-20T05:16:24;117.20;;;45.42;;
24145;SDS011;12308;50.948;4.706;2022-11-20T05:18:51;115.53;;;45.28;;
24145;SDS011;12308;50.948;4.706;2022-11-20T05:21:18;119.28;;;45.17;;
24145;SDS011;12308;50.948;4.706;2022-11-20T05:23:44;115.25;;;44.67;;
24145;SDS011;12308;50.948;4.706;2022-11-20T05:26:15;126.00;;;45.40;;
24145;SDS011;12308;50.948;4.706;2022-11-20T05:28:46;115.40;;;44.88;;
24145;SDS011;12308;50.948;4.706;2022-11-20T05:31:14;115.75;;;45.05;;
24145;SDS011;12308;50.948;4.706;2022-11-20T05:33:41;121.78;;;46.30;;
24145;SDS011;12308;50.948;4.706;2022-11-20T05:36:08;117.70;;;45.65;;
24145;SDS011;12308;50.948;4.706;2022-11-20T05:38:35;123.78;;;46.70;;
24145;SDS011;12308;50.948;4.706;2022-11-20T05:41:08;117.78;;;45.50;;
24145;SDS011;12308;50.948;4.706;2022-11-20T05:43:39;120.70;;;45.35;;
24145;SDS011;12308;50.948;4.706;2022-11-20T05:46:06;122.60;;;47.45;;
24145;SDS011;12308;50.948;4.706;2022-11-20T05:48:33;119.35;;;45.90;;
24145;SDS011;12308;50.948;4.706;2022-11-20T05:51:00;117.00;;;46.78;;
24145;SDS011;12308;50.948;4.706;2022-11-20T05:53:28;125.53;;;47.05;;
24145;SDS011;12308;50.948;4.706;2022-11-20T05:56:01;121.03;;;45.30;;
24145;SDS011;12308;50.948;4.706;2022-11-20T05:58:32;123.97;;;47.10;;
24145;SDS011;12308;50.948;4.706;2022-11-20T06:01:05;118.20;;;46.72;;
24145;SDS011;12308;50.948;4.706;2022-11-20T06:03:33;120.68;;;48.40;;
24145;SDS011;12308;50.948;4.706;2022-11-20T06:05:59;116.15;;;47.25;;
24145;SDS011;12308;50.948;4.706;2022-11-20T06:08:26;113.78;;;45.75;;
24145;SDS011;12308;50.948;4.706;2022-11-20T06:10:52;108.53;;;43.65;;
24145;SDS011;12308;50.948;4.706;2022-11-20T06:13:17;119.63;;;45.45;;
24145;SDS011;12308;50.948;4.706;2022-11-20T06:15:50;104.90;;;44.13;;
24145;SDS011;12308;50.948;4.706;2022-11-20T06:18:16;100.22;;;42.90;;
24145;SDS011;12308;50.948;4.706;2022-11-20T06:20:42;111.55;;;44.83;;
24145;SDS011;12308;50.948;4.706;2022-11-20T06:23:07;103.45;;;41.72;;
24145;SDS011;12308;50.948;4.706;2022-11-20T06:25:33;119.60;;;43.58;;
24145;SDS011;12308;50.948;4.706;2022-11-20T06:28:03;123.90;;;45.33;;
24145;SDS011;12308;50.948;4.706;2022-11-20T06:30:29;114.38;;;43.22;;
24145;SDS011;12308;50.948;4.706;2022-11-20T06:32:54;112.43;;;44.53;;
24145;SDS011;12308;50.948;4.706;2022-11-20T06:35:20;117.40;;;46.88;;
24145;SDS011;12308;50.948;4.706;2022-11-20T06:37:46;115.82;;;46.05;;
24145;SDS011;12308;50.948;4.706;2022-11-20T06:40:11;114.20;;;46.33;;
24145;SDS011;12308;50.948;4.706;2022-11-20T06:42:37;110.85;;;45.88;;
24145;SDS011;12308;50.948;4.706;2022-11-20T06:45:03;107.50;;;43.92;;
24145;SDS011;12308;50.948;4.706;2022-11-20T06:47:29;107.15;;;44.13;;
24145;SDS011;12308;50.948;4.706;2022-11-20T06:49:55;109.53;;;45.67;;
24145;SDS011;12308;50.948;4.706;2022-11-20T06:52:20;108.63;;;42.97;;
24145;SDS011;12308;50.948;4.706;2022-11-20T06:54:46;107.60;;;43.90;;
24145;SDS011;12308;50.948;4.706;2022-11-20T06:57:12;105.45;;;44.33;;
24145;SDS011;12308;50.948;4.706;2022-11-20T06:59:37;100.20;;;42.60;;
24145;SDS011;12308;50.948;4.706;2022-11-20T07:02:03;108.38;;;43.50;;
24145;SDS011;12308;50.948;4.706;2022-11-20T07:04:29;111.35;;;44.15;;
24145;SDS011;12308;50.948;4.706;2022-11-20T07:06:54;106.40;;;42.88;;
24145;SDS011;12308;50.948;4.706;2022-11-20T07:09:20;107.88;;;43.72;;
24145;SDS011;12308;50.948;4.706;2022-11-20T07:11:46;101.47;;;40.78;;
24145;SDS011;12308;50.948;4.706;2022-11-20T07:14:11;104.57;;;42.05;;
24145;SDS011;12308;50.948;4.706;2022-11-20T07:16:37;99.47;;;42.53;;
24145;SDS011;12308;50.948;4.706;2022-11-20T07:19:02;103.32;;;41.28;;
24145;SDS011;12308;50.948;4.706;2022-11-20T07:21:28;108.72;;;40.83;;
24145;SDS011;12308;50.948;4.706;2022-11-20T07:23:53;96.80;;;42.92;;
24145;SDS011;12308;50.948;4.706;2022-11-20T07:26:20;101.38;;;41.75;;
24145;SDS011;12308;50.948;4.706;2022-11-20T07:28:45;101.72;;;41.35;;
24145;SDS011;12308;50.948;4.706;2022-11-20T07:31:11;107.20;;;42.30;;
24145;SDS011;12308;50.948;4.706;2022-11-20T07:33:38;104.38;;;40.75;;
24145;SDS011;12308;50.948;4.706;2022-11-20T07:36:03;108.10;;;40.13;;
24145;SDS011;12308;50.948;4.706;2022-11-20T07:38:29;107.35;;;39.22;;
24145;SDS011;12308;50.948;4.706;2022-11-20T07:40:58;108.95;;;40.70;;
24145;SDS011;12308;50.948;4.706;2022-11-20T07:43:26;119.82;;;49.83;;
24145;SDS011;12308;50.948;4.706;2022-11-20T07:45:54;157.10;;;61.50;;
24145;SDS011;12308;50.948;4.706;2022-11-20T07:48:21;120.10;;;39.58;;
24145;SDS011;12308;50.948;4.706;2022-11-20T07:50:46;132.57;;;43.17;;
24145;SDS011;12308;50.948;4.706;2022-11-20T07:53:12;122.60;;;37.58;;
24145;SDS011;12308;50.948;4.706;2022-11-20T07:55:39;132.23;;;39.13;;
24145;SDS011;12308;50.948;4.706;2022-11-20T07:58:04;130.48;;;40.92;;
24145;SDS011;12308;50.948;4.706;2022-11-20T08:00:30;137.32;;;41.40;;
24145;SDS011;12308;50.948;4.706;2022-11-20T08:02:56;129.82;;;40.17;;
24145;SDS011;12308;50.948;4.706;2022-11-20T08:05:22;133.57;;;41.03;;
24145;SDS011;12308;50.948;4.706;2022-11-20T08:07:48;129.93;;;42.35;;
24145;SDS011;12308;50.948;4.706;2022-11-20T08:10:14;129.00;;;41.00;;
24145;SDS011;12308;50.948;4.706;2022-11-20T08:12:44;123.03;;;39.22;;
24145;SDS011;12308;50.948;4.706;2022-11-20T08:15:30;126.15;;;37.58;;
24145;SDS011;12308;50.948;4.706;2022-11-20T08:18:07;125.75;;;38.35;;
24145;SDS011;12308;50.948;4.706;2022-11-20T08:20:36;133.07;;;39.05;;
24145;SDS011;12308;50.948;4.706;2022-11-20T08:23:03;122.88;;;38.13;;
24145;SDS011;12308;50.948;4.706;2022-11-20T08:25:31;124.63;;;39.35;;
24145;SDS011;12308;50.948;4.706;2022-11-20T08:27:58;118.78;;;38.33;;
24145;SDS011;12308;50.948;4.706;2022-11-20T08:30:28;130.38;;;41.38;;
24145;SDS011;12308;50.948;4.706;2022-11-20T08:32:54;127.78;;;39.20;;
24145;SDS011;12308;50.948;4.706;2022-11-20T08:37:51;127.03;;;39.10;;
24145;SDS011;12308;50.948;4.706;2022-11-20T08:40:17;108.82;;;35.72;;
24145;SDS011;12308;50.948;4.706;2022-11-20T08:42:46;120.15;;;39.10;;
24145;SDS011;12308;50.948;4.706;2022-11-20T08:45:13;128.48;;;38.97;;
24145;SDS011;12308;50.948;4.706;2022-11-20T08:47:39;107.40;;;36.47;;
24145;SDS011;12308;50.948;4.706;2022-11-20T08:50:06;122.03;;;42.90;;
24145;SDS011;12308;50.948;4.706;2022-11-20T08:52:32;123.78;;;38.75;;
24145;SDS011;12308;50.948;4.706;2022-11-20T08:54:57;124.22;;;39.78;;
24145;SDS011;12308;50.948;4.706;2022-11-20T08:57:23;119.00;;;40.30;;
24145;SDS011;12308;50.948;4.706;2022-11-20T08:59:48;120.57;;;39.72;;
24145;SDS011;12308;50.948;4.706;2022-11-20T09:02:14;114.03;;;38.97;;
24145;SDS011;12308;50.948;4.706;2022-11-20T09:04:40;103.15;;;35.97;;
24145;SDS011;12308;50.948;4.706;2022-11-20T09:07:06;110.00;;;37.03;;
24145;SDS011;12308;50.948;4.706;2022-11-20T09:09:31;106.70;;;38.63;;
24145;SDS011;12308;50.948;4.706;2022-11-20T09:11:57;109.75;;;37.92;;
24145;SDS011;12308;50.948;4.706;2022-11-20T09:14:23;115.75;;;36.97;;
24145;SDS011;12308;50.948;4.706;2022-11-20T09:16:54;119.03;;;38.17;;
24145;SDS011;12308;50.948;4.706;2022-11-20T09:19:20;119.28;;;39.30;;
24145;SDS011;12308;50.948;4.706;2022-11-20T09:21:46;121.00;;;41.13;;
24145;SDS011;12308;50.948;4.706;2022-11-20T09:24:11;123.47;;;39.55;;
24145;SDS011;12308;50.948;4.706;2022-11-20T09:26:37;123.53;;;39.00;;
24145;SDS011;12308;50.948;4.706;2022-11-20T09:29:03;137.55;;;44.70;;
24145;SDS011;12308;50.948;4.706;2022-11-20T09:31:28;131.60;;;45.53;;
24145;SDS011;12308;50.948;4.706;2022-11-20T09:33:54;157.52;;;57.10;;
24145;SDS011;12308;50.948;4.706;2022-11-20T09:36:20;142.45;;;50.65;;
24145;SDS011;12308;50.948;4.706;2022-11-20T09:38:45;131.48;;;40.47;;
24145;SDS011;12308;50.948;4.706;2022-11-20T09:52:24;105.38;;;37.13;;
24145;SDS011;12308;50.948;4.706;2022-11-20T09:55:15;125.28;;;53.10;;
24145;SDS011;12308;50.948;4.706;2022-11-20T09:57:42;117.97;;;42.15;;
24145;SDS011;12308;50.948;4.706;2022-11-20T10:00:13;240.25;;;86.78;;
24145;SDS011;12308;50.948;4.706;2022-11-20T10:07:52;329.58;;;105.55;;
24145;SDS011;12308;50.948;4.706;2022-11-20T10:26:58;123.43;;;49.63;;
24145;SDS011;12308;50.948;4.706;2022-11-20T10:29:46;103.68;;;40.17;;
24145;SDS011;12308;50.948;4.706;2022-11-20T10:32:24;115.82;;;45.25;;
24145;SDS011;12308;50.948;4.706;2022-11-20T10:35:05;97.13;;;35.95;;
24145;SDS011;12308;50.948;4.706;2022-11-20T10:37:41;109.43;;;38.88;;
24145;SDS011;12308;50.948;4.706;2022-11-20T10:50:49;120.32;;;50.25;;
24145;SDS011;12308;50.948;4.706;2022-11-20T11:01:16;75.40;;;30.60;;
24145;SDS011;12308;50.948;4.706;2022-11-20T11:03:43;71.80;;;28.92;;
24145;SDS011;12308;50.948;4.706;2022-11-20T11:06:28;96.30;;;38.28;;
24145;SDS011;12308;50.948;4.706;2022-11-20T11:09:08;134.38;;;48.80;;
24145;SDS011;12308;50.948;4.706;2022-11-20T11:11:40;132.70;;;49.30;;
24145;SDS011;12308;50.948;4.706;2022-11-20T11:16:31;87.72;;;38.45;;
24145;SDS011;12308;50.948;4.706;2022-11-20T11:19:07;65.18;;;28.73;;
24145;SDS011;12308;50.948;4.706;2022-11-20T11:21:38;53.65;;;24.83;;
24145;SDS011;12308;50.948;4.706;2022-11-20T11:24:21;50.42;;;22.17;;
24145;SDS011;12308;50.948;4.706;2022-11-20T11:26:59;47.72;;;22.13;;
24145;SDS011;12308;50.948;4.706;2022-11-20T11:29:31;43.65;;;19.50;;
24145;SDS011;12308;50.948;4.706;2022-11-20T11:32:05;38.80;;;17.83;;
24145;SDS011;12308;50.948;4.706;2022-11-20T11:34:38;38.00;;;16.27;;
24145;SDS011;12308;50.948;4.706;2022-11-20T11:37:04;31.80;;;16.05;;
24145;SDS011;12308;50.948;4.706;2022-11-20T11:39:37;34.30;;;15.55;;
24145;SDS011;12308;50.948;4.706;2022-11-20T11:42:07;31.00;;;14.55;;
24145;SDS011;12308;50.948;4.706;2022-11-20T11:44:45;28.30;;;12.98;;
24145;SDS011;12308;50.948;4.706;2022-11-20T11:52:36;28.10;;;10.35;;
24145;SDS011;12308;50.948;4.706;2022-11-20T11:55:35;40.75;;;20.55;;
24145;SDS011;12308;50.948;4.706;2022-11-20T12:00:57;20.38;;;11.60;;
24145;SDS011;12308;50.948;4.706;2022-11-20T12:03:29;20.75;;;8.50;;
24145;SDS011;12308;50.948;4.706;2022-11-20T12:06:15;16.55;;;7.72;;
24145;SDS011;12308;50.948;4.706;2022-11-20T12:08:53;16.83;;;7.07;;
24145;SDS011;12308;50.948;4.706;2022-11-20T12:11:41;28.23;;;16.85;;
24145;SDS011;12308;50.948;4.706;2022-11-20T12:14:31;11.25;;;6.25;;
24145;SDS011;12308;50.948;4.706;2022-11-20T12:17:01;17.90;;;5.95;;
24145;SDS011;12308;50.948;4.706;2022-11-20T12:19:29;18.40;;;5.90;;
24145;SDS011;12308;50.948;4.706;2022-11-20T12:24:31;12.82;;;5.78;;
24145;SDS011;12308;50.948;4.706;2022-11-20T12:35:20;14.85;;;4.30;;
24145;SDS011;12308;50.948;4.706;2022-11-20T12:43:21;19.63;;;6.70;;
24145;SDS011;12308;50.948;4.706;2022-11-20T12:48:54;12.52;;;5.50;;
24145;SDS011;12308;50.948;4.706;2022-11-20T12:56:56;48.30;;;18.30;;
24145;SDS011;12308;50.948;4.706;2022-11-20T12:59:51;43.03;;;14.65;;
24145;SDS011;12308;50.948;4.706;2022-11-20T13:06:10;13.52;;;6.05;;
24145;SDS011;12308;50.948;4.706;2022-11-20T13:08:25;16.42;;;4.88;;
24145;SDS011;12308;50.948;4.706;2022-11-20T13:16:10;11.00;;;4.50;;
24145;SDS011;12308;50.948;4.706;2022-11-20T13:19:09;14.15;;;5.53;;
24145;SDS011;12308;50.948;4.706;2022-11-20T13:21:41;24.70;;;12.35;;
24145;SDS011;12308;50.948;4.706;2022-11-20T13:26:44;63.78;;;28.10;;
24145;SDS011;12308;50.948;4.706;2022-11-20T13:29:17;45.35;;;17.35;;
24145;SDS011;12308;50.948;4.706;2022-11-20T13:31:44;21.00;;;9.43;;
24145;SDS011;12308;50.948;4.706;2022-11-20T13:34:25;90.47;;;35.42;;
24145;SDS011;12308;50.948;4.706;2022-11-20T13:36:53;46.92;;;17.10;;
24145;SDS011;12308;50.948;4.706;2022-11-20T13:39:27;41.10;;;14.80;;
24145;SDS011;12308;50.948;4.706;2022-11-20T13:44:42;28.50;;;10.10;;
24145;SDS011;12308;50.948;4.706;2022-11-20T13:47:24;53.25;;;21.52;;
24145;SDS011;12308;50.948;4.706;2022-11-20T13:49:52;46.10;;;17.27;;
24145;SDS011;12308;50.948;4.706;2022-11-20T14:03:35;19.65;;;8.80;;
24145;SDS011;12308;50.948;4.706;2022-11-20T14:06:04;13.95;;;6.68;;
24145;SDS011;12308;50.948;4.706;2022-11-20T14:08:48;16.73;;;5.88;;
24145;SDS011;12308;50.948;4.706;2022-11-20T14:14:31;15.35;;;5.88;;
24145;SDS011;12308;50.948;4.706;2022-11-20T14:16:41;12.57;;;5.65;;
24145;SDS011;12308;50.948;4.706;2022-11-20T14:19:23;16.45;;;5.35;;
24145;SDS011;12308;50.948;4.706;2022-11-20T14:22:07;13.90;;;5.57;;
24145;SDS011;12308;50.948;4.706;2022-11-20T14:24:46;15.55;;;5.07;;
24145;SDS011;12308;50.948;4.706;2022-11-20T14:27:16;15.50;;;7.35;;
24145;SDS011;12308;50.948;4.706;2022-11-20T14:29:44;11.60;;;5.40;;
24145;SDS011;12308;50.948;4.706;2022-11-20T14:32:14;13.45;;;5.25;;
24145;SDS011;12308;50.948;4.706;2022-11-20T14:34:43;8.30;;;4.70;;
24145;SDS011;12308;50.948;4.706;2022-11-20T14:37:12;13.10;;;4.75;;
24145;SDS011;12308;50.948;4.706;2022-11-20T14:42:20;12.00;;;4.97;;
24145;SDS011;12308;50.948;4.706;2022-11-20T14:44:47;7.72;;;6.13;;
24145;SDS011;12308;50.948;4.706;2022-11-20T14:47:35;14.05;;;10.68;;
24145;SDS011;12308;50.948;4.706;2022-11-20T14:50:00;12.98;;;9.95;;
24145;SDS011;12308;50.948;4.706;2022-11-20T14:52:27;15.85;;;9.90;;
24145;SDS011;12308;50.948;4.706;2022-11-20T14:54:54;13.02;;;8.25;;
24145;SDS011;12308;50.948;4.706;2022-11-20T14:57:27;8.68;;;6.50;;
24145;SDS011;12308;50.948;4.706;2022-11-20T15:02:40;29.25;;;20.75;;
24145;SDS011;12308;50.948;4.706;2022-11-20T15:05:08;26.48;;;16.25;;
24145;SDS011;12308;50.948;4.706;2022-11-20T15:07:35;21.92;;;12.90;;
24145;SDS011;12308;50.948;4.706;2022-11-20T15:10:06;13.57;;;7.88;;
24145;SDS011;12308;50.948;4.706;2022-11-20T15:12:38;12.65;;;7.60;;
24145;SDS011;12308;50.948;4.706;2022-11-20T15:15:11;16.55;;;11.45;;
24145;SDS011;12308;50.948;4.706;2022-11-20T15:17:39;14.77;;;9.80;;
24145;SDS011;12308;50.948;4.706;2022-11-20T15:20:09;12.80;;;8.18;;
24145;SDS011;12308;50.948;4.706;2022-11-20T15:22:38;12.18;;;7.55;;
24145;SDS011;12308;50.948;4.706;2022-11-20T15:25:10;13.13;;;8.77;;
24145;SDS011;12308;50.948;4.706;2022-11-20T15:27:40;12.55;;;8.05;;
24145;SDS011;12308;50.948;4.706;2022-11-20T15:30:19;13.52;;;8.88;;
24145;SDS011;12308;50.948;4.706;2022-11-20T15:32:46;12.93;;;7.80;;
24145;SDS011;12308;50.948;4.706;2022-11-20T15:35:12;12.60;;;8.48;;
24145;SDS011;12308;50.948;4.706;2022-11-20T15:37:39;11.55;;;7.93;;
24145;SDS011;12308;50.948;4.706;2022-11-20T15:40:05;13.45;;;9.93;;
24145;SDS011;12308;50.948;4.706;2022-11-20T15:42:32;20.25;;;9.48;;
24145;SDS011;12308;50.948;4.706;2022-11-20T15:44:58;15.38;;;11.00;;
24145;SDS011;12308;50.948;4.706;2022-11-20T15:47:25;18.88;;;10.90;;
24145;SDS011;12308;50.948;4.706;2022-11-20T15:49:54;24.13;;;13.20;;
24145;SDS011;12308;50.948;4.706;2022-11-20T15:52:20;17.65;;;9.90;;
24145;SDS011;12308;50.948;4.706;2022-11-20T15:54:46;25.05;;;12.45;;
24145;SDS011;12308;50.948;4.706;2022-11-20T15:57:12;33.38;;;14.43;;
24145;SDS011;12308;50.948;4.706;2022-11-20T15:59:38;28.58;;;17.73;;
24145;SDS011;12308;50.948;4.706;2022-11-20T16:02:10;19.75;;;10.10;;
24145;SDS011;12308;50.948;4.706;2022-11-20T16:04:36;23.60;;;14.82;;
24145;SDS011;12308;50.948;4.706;2022-11-20T16:07:03;14.75;;;8.80;;
24145;SDS011;12308;50.948;4.706;2022-11-20T16:09:28;21.63;;;9.05;;
24145;SDS011;12308;50.948;4.706;2022-11-20T16:11:54;17.98;;;9.57;;
24145;SDS011;12308;50.948;4.706;2022-11-20T16:14:20;15.73;;;8.38;;
24145;SDS011;12308;50.948;4.706;2022-11-20T16:17:04;20.77;;;8.45;;
24145;SDS011;12308;50.948;4.706;2022-11-20T16:19:29;15.98;;;7.57;;
24145;SDS011;12308;50.948;4.706;2022-11-20T16:21:56;39.22;;;18.67;;
24145;SDS011;12308;50.948;4.706;2022-11-20T16:24:23;49.85;;;24.02;;
24145;SDS011;12308;50.948;4.706;2022-11-20T16:26:48;22.58;;;8.45;;
24145;SDS011;12308;50.948;4.706;2022-11-20T16:29:14;19.27;;;9.65;;
24145;SDS011;12308;50.948;4.706;2022-11-20T16:31:39;15.57;;;9.27;;
24145;SDS011;12308;50.948;4.706;2022-11-20T16:34:05;25.23;;;8.93;;
24145;SDS011;12308;50.948;4.706;2022-11-20T16:36:32;16.15;;;8.10;;
24145;SDS011;12308;50.948;4.706;2022-11-20T16:38:58;17.05;;;7.60;;
24145;SDS011;12308;50.948;4.706;2022-11-20T16:41:26;28.33;;;8.68;;
24145;SDS011;12308;50.948;4.706;2022-11-20T16:43:55;23.40;;;8.10;;
24145;SDS011;12308;50.948;4.706;2022-11-20T16:46:29;25.98;;;7.50;;